Terminal Aerodrome Forecast
Issued by NWS

Home | Current Version | Previous Version | Text Only | Print | Product List | Glossary On
Versions: 1 2 3 4 5 6 7 8 9 10 11 12 13 14 15 16 17 18 19 20 21 22 23 24 25 26
000
FTUS41 KPBZ 272000 AAB
TAFHLG
TAF AMD
KHLG 272037Z 2721/2818 28009KT 2SM -SHSN BR OVC015
     FM272300 30008KT P6SM -SHSN OVC030
     FM280800 32007KT P6SM OVC035
     FM281600 25006KT P6SM BKN050=

USA.gov is the U.S. government's official web portal to all federal, state and local government web resources and services.